Time;durP1;ratioP1;P1;durP2;ratioP2;P2;SDS_P1;SDS_P2;PMS_P1;PMS_P2;Temp;Humidity;BMP_temperature;BMP_pressure;BME280_temperature;BME280_humidity;BME280_pressure;Samples;Min_cycle;Max_cycle;Signal;HPM_P1;HPM_P2
2023/09/02 00:01:02;;;;;;;7.33;3.00;;;;;;;;;;5092867;28;20194;-72
2023/09/02 00:04:07;;;;;;;5.37;2.23;;;;;;;;;;5092793;28;20211;-72
2023/09/02 00:07:11;;;;;;;7.33;2.63;;;;;;;;;;5097130;28;20183;-72
2023/09/02 00:10:16;;;;;;;3.20;2.47;;;;;;;;;;5096844;28;20206;-72
2023/09/02 00:13:20;;;;;;;5.90;2.60;;;;;;;;;;5096936;28;20218;-72
2023/09/02 00:16:24;;;;;;;3.30;2.70;;;;;;;;;;5096984;28;20171;-72
2023/09/02 00:19:29;;;;;;;4.67;2.20;;;;;;;;;;5096751;28;20178;-72
2023/09/02 00:22:33;;;;;;;5.07;2.57;;;;;;;;;;5095968;28;20210;-72
2023/09/02 00:25:37;;;;;;;5.90;2.50;;;;;;;;;;5096573;28;20203;-72
2023/09/02 00:28:41;;;;;;;4.20;2.20;;;;;;;;;;5096387;28;20174;-72
2023/09/02 00:31:45;;;;;;;6.27;1.90;;;;;;;;;;5095513;28;20175;-72
2023/09/02 00:34:49;;;;;;;7.10;2.30;;;;;;;;;;5095573;28;20175;-72
2023/09/02 00:37:54;;;;;;;6.87;2.30;;;;;;;;;;5095456;28;20175;-72
2023/09/02 00:41:02;;;;;;;3.10;2.03;;;;;;;;;;5096303;28;20183;-72
2023/09/02 00:44:07;;;;;;;4.93;2.20;;;;;;;;;;5095225;28;20215;-72
2023/09/02 00:47:12;;;;;;;4.07;2.20;;;;;;;;;;5095262;28;20175;-72
2023/09/02 00:50:16;;;;;;;5.70;2.27;;;;;;;;;;5095383;28;20167;-72
2023/09/02 00:53:20;;;;;;;3.20;2.30;;;;;;;;;;5095146;28;20214;-72
2023/09/02 00:56:25;;;;;;;7.97;2.60;;;;;;;;;;5095893;28;20191;-72
2023/09/02 00:59:29;;;;;;;5.40;2.40;;;;;;;;;;5095323;28;20195;-72
2023/09/02 01:02:33;;;;;;;6.53;2.43;;;;;;;;;;5095161;28;20214;-72
2023/09/02 01:05:38;;;;;;;6.27;2.50;;;;;;;;;;5095949;28;20543;-72
2023/09/02 01:08:43;;;;;;;3.70;2.33;;;;;;;;;;5095964;28;20179;-72
2023/09/02 01:11:48;;;;;;;5.47;2.27;;;;;;;;;;5094982;28;20198;-72
2023/09/02 01:14:52;;;;;;;10.97;2.70;;;;;;;;;;5094775;28;20187;-72
2023/09/02 01:17:56;;;;;;;2.97;2.33;;;;;;;;;;5095110;28;20183;-72
2023/09/02 01:21:13;;;;;;;5.80;2.10;;;;;;;;;;5095448;28;20531;-72
2023/09/02 01:24:39;;;;;;;3.20;2.30;;;;;;;;;;5094531;28;20657;-72
2023/09/02 01:27:49;;;;;;;7.57;2.27;;;;;;;;;;5094525;28;20523;-72
2023/09/02 01:30:56;;;;;;;3.87;2.27;;;;;;;;;;5095490;28;20194;-72
2023/09/02 01:34:01;;;;;;;3.40;1.97;;;;;;;;;;5094420;28;20226;-72
2023/09/02 01:37:08;;;;;;;4.90;2.13;;;;;;;;;;5094304;28;20190;-72
2023/09/02 01:40:21;;;;;;;4.30;2.13;;;;;;;;;;5082753;28;20175;-72
2023/09/02 01:43:29;;;;;;;4.53;2.20;;;;;;;;;;5094426;28;20219;-72
2023/09/02 01:46:33;;;;;;;4.23;2.30;;;;;;;;;;5094338;28;20203;-72
2023/09/02 01:49:38;;;;;;;3.17;2.30;;;;;;;;;;5094120;28;20214;-72
2023/09/02 01:52:43;;;;;;;4.33;2.20;;;;;;;;;;5094826;28;20713;-72
2023/09/02 01:55:48;;;;;;;2.63;2.00;;;;;;;;;;5094839;28;20171;-72
2023/09/02 01:58:53;;;;;;;2.17;1.70;;;;;;;;;;5093991;28;20183;-72
2023/09/02 02:01:57;;;;;;;3.73;1.93;;;;;;;;;;5094025;28;20183;-72
2023/09/02 02:05:05;;;;;;;2.53;2.07;;;;;;;;;;5093734;28;20554;-72
2023/09/02 02:08:21;;;;;;;3.70;2.00;;;;;;;;;;5095030;28;20175;-72
2023/09/02 02:11:28;;;;;;;3.33;2.17;;;;;;;;;;5093524;28;20668;-72
2023/09/02 02:14:33;;;;;;;6.73;2.33;;;;;;;;;;5094773;28;20187;-72
2023/09/02 02:17:41;;;;;;;5.00;2.30;;;;;;;;;;5093828;28;20175;-72
2023/09/02 02:21:04;;;;;;;4.80;2.63;;;;;;;;;;5094620;28;20183;-72
2023/09/02 02:24:08;;;;;;;3.37;2.40;;;;;;;;;;5093408;28;20222;-72
2023/09/02 02:27:13;;;;;;;4.33;2.07;;;;;;;;;;5093296;28;20543;-72
2023/09/02 02:30:17;;;;;;;5.90;2.33;;;;;;;;;;5093076;28;20198;-72
2023/09/02 02:33:21;;;;;;;3.53;2.20;;;;;;;;;;5094204;28;20214;-72
2023/09/02 02:36:26;;;;;;;7.77;2.37;;;;;;;;;;5094040;28;20523;-72
2023/09/02 02:39:30;;;;;;;5.53;2.47;;;;;;;;;;5094461;28;20187;-72
2023/09/02 02:42:34;;;;;;;7.10;2.23;;;;;;;;;;5093815;28;20214;-72
2023/09/02 02:45:38;;;;;;;2.67;2.07;;;;;;;;;;5093010;28;20207;-72
2023/09/02 02:48:43;;;;;;;2.97;2.07;;;;;;;;;;5092992;28;20625;-72
2023/09/02 02:51:47;;;;;;;2.70;2.30;;;;;;;;;;5093988;28;20183;-72
2023/09/02 02:54:51;;;;;;;7.07;2.40;;;;;;;;;;5093103;28;20179;-72
2023/09/02 02:57:56;;;;;;;3.87;2.20;;;;;;;;;;5093686;28;20523;-72
2023/09/02 03:01:02;;;;;;;2.53;1.97;;;;;;;;;;5093113;28;20523;-72
2023/09/02 03:04:08;;;;;;;4.80;2.30;;;;;;;;;;5092730;28;20215;-72
2023/09/02 03:07:12;;;;;;;9.70;2.20;;;;;;;;;;5093407;28;20559;-72
2023/09/02 03:10:19;;;;;;;9.00;2.30;;;;;;;;;;5092671;28;20202;-72
2023/09/02 03:13:25;;;;;;;7.40;2.33;;;;;;;;;;5092775;28;20562;-72
2023/09/02 03:16:29;;;;;;;3.60;2.27;;;;;;;;;;5092901;28;20175;-72
2023/09/02 03:19:34;;;;;;;4.27;2.30;;;;;;;;;;5092519;28;20175;-72
2023/09/02 03:22:40;;;;;;;3.97;2.20;;;;;;;;;;5092418;28;20214;-72
2023/09/02 03:25:45;;;;;;;3.07;2.20;;;;;;;;;;5093193;28;20218;-72
2023/09/02 03:28:49;;;;;;;5.30;2.30;;;;;;;;;;5093488;28;20195;-72
2023/09/02 03:31:55;;;;;;;3.80;2.43;;;;;;;;;;5092667;28;20179;-72
2023/09/02 03:34:59;;;;;;;2.23;1.80;;;;;;;;;;5093288;28;20178;-72
2023/09/02 03:38:05;;;;;;;2.17;1.97;;;;;;;;;;5092329;28;20199;-72
2023/09/02 03:41:17;;;;;;;6.47;2.60;;;;;;;;;;5095947;28;20170;-72
2023/09/02 03:44:21;;;;;;;4.20;2.13;;;;;;;;;;5096784;28;20183;-72
2023/09/02 03:47:30;;;;;;;6.67;2.23;;;;;;;;;;5096346;28;20202;-72
2023/09/02 03:51:05;;;;;;;4.37;2.30;;;;;;;;;;5096669;28;20182;-72
2023/09/02 03:54:12;;;;;;;3.00;1.80;;;;;;;;;;5096558;28;20183;-72
2023/09/02 03:57:17;;;;;;;5.37;2.33;;;;;;;;;;5097066;28;20191;-72
2023/09/02 04:00:23;;;;;;;4.30;1.97;;;;;;;;;;5096512;28;20194;-72
2023/09/02 04:03:29;;;;;;;2.73;2.00;;;;;;;;;;5096392;28;20550;-72
2023/09/02 04:06:33;;;;;;;3.27;2.20;;;;;;;;;;5096359;28;20211;-72
2023/09/02 04:09:37;;;;;;;6.77;2.30;;;;;;;;;;5096805;28;20210;-72
2023/09/02 04:12:41;;;;;;;2.97;1.97;;;;;;;;;;5096011;28;20705;-72
2023/09/02 04:15:45;;;;;;;5.80;2.27;;;;;;;;;;5084890;28;20179;-72
2023/09/02 04:18:50;;;;;;;6.90;2.30;;;;;;;;;;5096683;28;20190;-72
2023/09/02 04:21:54;;;;;;;9.33;2.67;;;;;;;;;;5095780;28;20178;-72
2023/09/02 04:24:58;;;;;;;6.87;2.37;;;;;;;;;;5095947;28;20175;-72
2023/09/02 04:28:03;;;;;;;4.97;2.43;;;;;;;;;;5095674;28;20191;-72
2023/09/02 04:31:07;;;;;;;8.23;2.20;;;;;;;;;;5096411;28;20195;-72
2023/09/02 04:34:13;;;;;;;8.43;3.13;;;;;;;;;;5096557;28;20175;-72
2023/09/02 04:37:18;;;;;;;3.10;2.27;;;;;;;;;;5095370;28;20171;-72
2023/09/02 04:40:22;;;;;;;4.03;2.57;;;;;;;;;;5095472;28;20638;-72
2023/09/02 04:43:26;;;;;;;2.33;1.87;;;;;;;;;;5095140;28;20210;-72
2023/09/02 04:46:31;;;;;;;4.20;2.10;;;;;;;;;;5095418;28;20580;-72
2023/09/02 04:49:36;;;;;;;5.33;2.17;;;;;;;;;;5096069;28;20171;-72
2023/09/02 04:52:41;;;;;;;4.93;2.50;;;;;;;;;;5094893;28;20219;-72
2023/09/02 04:55:45;;;;;;;3.93;1.83;;;;;;;;;;5095294;28;20523;-72
2023/09/02 04:58:52;;;;;;;2.57;2.10;;;;;;;;;;5095404;28;20171;-72
2023/09/02 05:01:58;;;;;;;2.27;2.03;;;;;;;;;;5095041;28;20179;-72
2023/09/02 05:05:02;;;;;;;4.57;1.70;;;;;;;;;;5083530;28;20182;-72
2023/09/02 05:08:07;;;;;;;2.47;1.77;;;;;;;;;;5095581;28;20187;-72
2023/09/02 05:11:11;;;;;;;3.63;2.17;;;;;;;;;;5094694;28;20202;-72
2023/09/02 05:14:15;;;;;;;3.80;2.07;;;;;;;;;;5094661;28;20183;-72
2023/09/02 05:17:20;;;;;;;3.30;2.17;;;;;;;;;;5094813;28;20171;-72
2023/09/02 05:20:24;;;;;;;4.73;2.00;;;;;;;;;;5094734;28;20637;-72
2023/09/02 05:23:28;;;;;;;6.93;2.70;;;;;;;;;;5094689;28;20218;-72
2023/09/02 05:26:35;;;;;;;9.37;3.10;;;;;;;;;;5094812;28;20206;-72
2023/09/02 05:29:39;;;;;;;9.87;3.63;;;;;;;;;;5095516;28;20179;-72
2023/09/02 05:32:43;;;;;;;7.67;3.17;;;;;;;;;;5095145;28;20222;-71
2023/09/02 05:35:48;;;;;;;7.63;3.13;;;;;;;;;;5095157;28;20519;-71
2023/09/02 05:38:52;;;;;;;9.63;3.10;;;;;;;;;;5095147;28;20179;-71
2023/09/02 05:41:57;;;;;;;6.37;2.80;;;;;;;;;;5094954;28;20175;-72
2023/09/02 05:45:01;;;;;;;7.23;2.83;;;;;;;;;;5095309;28;20183;-72
2023/09/02 05:48:06;;;;;;;6.33;2.60;;;;;;;;;;5094904;28;20551;-71
2023/09/02 05:51:10;;;;;;;6.63;3.60;;;;;;;;;;5094935;28;20175;-71
2023/09/02 05:54:14;;;;;;;12.37;3.67;;;;;;;;;;5095185;28;20530;-71
2023/09/02 05:57:18;;;;;;;7.67;5.30;;;;;;;;;;5094888;28;20511;-71
2023/09/02 06:00:22;;;;;;;13.77;7.10;;;;;;;;;;5093941;28;20633;-72
2023/09/02 06:03:27;;;;;;;15.27;5.90;;;;;;;;;;5094300;28;20214;-72
2023/09/02 06:06:31;;;;;;;7.03;4.47;;;;;;;;;;5094437;28;20226;-71
2023/09/02 06:09:35;;;;;;;12.33;5.17;;;;;;;;;;5094299;28;20202;-72
2023/09/02 06:12:39;;;;;;;10.13;4.67;;;;;;;;;;5094320;28;20211;-72
2023/09/02 06:15:43;;;;;;;7.33;4.20;;;;;;;;;;5093416;28;20633;-72
2023/09/02 06:18:47;;;;;;;3.93;3.27;;;;;;;;;;5094249;28;20190;-72
2023/09/02 06:21:52;;;;;;;6.07;3.30;;;;;;;;;;5093295;28;20531;-71
2023/09/02 06:24:56;;;;;;;4.30;3.40;;;;;;;;;;5094257;28;20199;-72
2023/09/02 06:28:00;;;;;;;5.43;3.63;;;;;;;;;;5094030;28;20226;-72
2023/09/02 06:31:06;;;;;;;6.10;3.80;;;;;;;;;;5094341;28;20194;-71
2023/09/02 06:34:10;;;;;;;6.77;3.93;;;;;;;;;;5094073;28;20210;-71
2023/09/02 06:37:14;;;;;;;7.50;3.60;;;;;;;;;;5093978;28;20175;-72
2023/09/02 06:40:19;;;;;;;4.10;3.40;;;;;;;;;;5093109;28;20535;-72
2023/09/02 06:43:23;;;;;;;4.73;3.17;;;;;;;;;;5094082;28;20214;-72
2023/09/02 06:46:27;;;;;;;6.60;3.37;;;;;;;;;;5093746;28;20202;-72
2023/09/02 06:49:32;;;;;;;6.43;3.40;;;;;;;;;;5093747;28;20178;-72
2023/09/02 06:52:36;;;;;;;4.83;3.60;;;;;;;;;;5093565;28;20215;-72
2023/09/02 06:55:40;;;;;;;6.13;4.17;;;;;;;;;;5093513;28;20198;-72
2023/09/02 06:58:45;;;;;;;6.23;5.17;;;;;;;;;;5093914;28;20175;-71
2023/09/02 07:01:49;;;;;;;5.57;4.03;;;;;;;;;;5093458;28;20179;-72
2023/09/02 07:04:53;;;;;;;6.20;3.47;;;;;;;;;;5092860;28;20179;-72
2023/09/02 07:07:59;;;;;;;3.70;3.00;;;;;;;;;;5093723;28;20210;-72
2023/09/02 07:11:05;;;;;;;3.93;3.33;;;;;;;;;;5093274;28;20206;-72
2023/09/02 07:14:09;;;;;;;4.90;3.37;;;;;;;;;;5092720;28;20210;-70
2023/09/02 07:17:14;;;;;;;4.97;3.60;;;;;;;;;;5093611;28;20175;-72
2023/09/02 07:20:18;;;;;;;8.43;3.77;;;;;;;;;;5093553;28;20186;-70
2023/09/02 07:23:22;;;;;;;7.00;3.53;;;;;;;;;;5093266;28;20222;-72
2023/09/02 07:26:29;;;;;;;6.77;3.40;;;;;;;;;;5093147;28;20182;-70
2023/09/02 07:29:33;;;;;;;5.27;3.40;;;;;;;;;;5093522;28;20187;-72
2023/09/02 07:32:37;;;;;;;4.73;3.20;;;;;;;;;;5093061;28;20218;-70
2023/09/02 07:35:42;;;;;;;3.70;3.37;;;;;;;;;;5093152;28;20182;-70
2023/09/02 07:38:46;;;;;;;4.10;3.00;;;;;;;;;;5093214;28;20171;-70
2023/09/02 07:41:50;;;;;;;4.47;2.87;;;;;;;;;;5092907;28;20186;-70
2023/09/02 07:44:54;;;;;;;6.37;3.33;;;;;;;;;;5093485;28;20522;-70
2023/09/02 07:47:58;;;;;;;4.77;2.70;;;;;;;;;;5093272;28;20534;-73
2023/09/02 07:51:02;;;;;;;3.67;2.67;;;;;;;;;;5093329;28;20178;-71
2023/09/02 07:54:06;;;;;;;5.57;2.60;;;;;;;;;;5092944;28;20218;-73
2023/09/02 07:57:11;;;;;;;3.60;3.03;;;;;;;;;;5093327;28;20175;-72
2023/09/02 08:00:15;;;;;;;4.00;2.90;;;;;;;;;;5093229;28;20171;-72
2023/09/02 08:03:19;;;;;;;4.20;2.80;;;;;;;;;;5092158;28;20220;-72
2023/09/02 08:06:23;;;;;;;11.33;6.67;;;;;;;;;;5093499;28;20180;-73
2023/09/02 08:09:27;;;;;;;6.50;5.80;;;;;;;;;;5092873;28;20172;-73
2023/09/02 08:12:31;;;;;;;4.10;3.00;;;;;;;;;;5092801;28;20219;-72
2023/09/02 08:15:40;;;;;;;7.40;2.90;;;;;;;;;;5092851;28;20176;-72
2023/09/02 08:18:44;;;;;;;3.60;2.50;;;;;;;;;;5092894;28;20523;-72
2023/09/02 08:21:48;;;;;;;3.80;2.63;;;;;;;;;;5091903;28;20547;-72
2023/09/02 08:24:52;;;;;;;8.80;2.70;;;;;;;;;;5092977;28;20178;-72
2023/09/02 08:27:56;;;;;;;6.70;2.50;;;;;;;;;;5096499;28;20671;-72
2023/09/02 08:31:00;;;;;;;8.33;2.60;;;;;;;;;;5096740;28;20177;-73
2023/09/02 08:34:05;;;;;;;3.90;2.67;;;;;;;;;;5096351;28;20213;-72
2023/09/02 08:37:09;;;;;;;3.77;2.00;;;;;;;;;;5096404;28;20168;-72
2023/09/02 08:40:14;;;;;;;3.55;2.15;;;;;;;;;;5096685;28;20173;-72
2023/09/02 08:43:19;;;;;;;3.42;2.25;;;;;;;;;;5096319;28;20219;-72
2023/09/02 08:46:27;;;;;;;4.82;2.10;;;;;;;;;;5096226;28;20180;-72
2023/09/02 08:49:32;;;;;;;4.43;2.20;;;;;;;;;;5096273;28;20177;-72
2023/09/02 08:52:37;;;;;;;3.42;1.80;;;;;;;;;;5096012;28;20213;-72
2023/09/02 08:55:42;;;;;;;6.80;1.85;;;;;;;;;;5096023;28;20178;-72
2023/09/02 08:58:48;;;;;;;2.67;1.63;;;;;;;;;;5096513;28;20620;-72
2023/09/02 09:01:53;;;;;;;2.00;1.70;;;;;;;;;;5096171;28;20177;-73
2023/09/02 09:05:01;;;;;;;2.90;1.70;;;;;;;;;;5096017;28;20178;-72
2023/09/02 09:08:06;;;;;;;4.82;1.80;;;;;;;;;;5096005;28;20210;-72
2023/09/02 09:11:11;;;;;;;2.00;1.55;;;;;;;;;;5094861;28;20203;-73
2023/09/02 09:14:24;;;;;;;2.33;1.80;;;;;;;;;;5095667;28;20546;-73
2023/09/02 09:17:29;;;;;;;3.60;2.10;;;;;;;;;;5095106;28;20188;-73
2023/09/02 09:20:34;;;;;;;3.47;1.90;;;;;;;;;;5095641;28;20180;-74
2023/09/02 09:23:38;;;;;;;4.05;1.90;;;;;;;;;;5095740;28;20211;-73
2023/09/02 09:26:43;;;;;;;7.38;4.15;;;;;;;;;;5095490;28;20630;-73
2023/09/02 09:29:47;;;;;;;5.25;2.20;;;;;;;;;;5095645;28;20168;-73
2023/09/02 09:33:00;;;;;;;3.13;1.17;;;;;;;;;;5095535;28;20219;-72
2023/09/02 09:36:11;;;;;;;1.38;1.13;;;;;;;;;;5095306;28;20183;-73
2023/09/02 09:39:15;;;;;;;1.85;1.20;;;;;;;;;;5095135;28;20171;-72
2023/09/02 09:42:33;;;;;;;1.23;1.13;;;;;;;;;;5095154;28;20218;-73
2023/09/02 09:45:48;;;;;;;3.25;1.23;;;;;;;;;;5095547;28;20618;-73
2023/09/02 09:49:00;;;;;;;12.85;1.58;;;;;;;;;;5094871;28;20203;-72
2023/09/02 09:52:12;;;;;;;6.55;1.77;;;;;;;;;;5095433;28;20183;-72
2023/09/02 09:55:23;;;;;;;1.77;1.30;;;;;;;;;;5094818;28;20179;-72
2023/09/02 09:58:26;;;;;;;1.80;1.42;;;;;;;;;;5095070;28;20180;-73
2023/09/02 10:01:30;;;;;;;2.28;1.55;;;;;;;;;;5094715;28;20191;-73
2023/09/02 10:04:34;;;;;;;1.45;1.25;;;;;;;;;;5094741;28;20176;-72
2023/09/02 10:07:38;;;;;;;1.33;1.23;;;;;;;;;;5094603;28;20681;-72
2023/09/02 10:10:42;;;;;;;2.17;1.17;;;;;;;;;;5094539;28;20202;-72
2023/09/02 10:13:47;;;;;;;3.20;1.70;;;;;;;;;;5094447;28;20215;-72
2023/09/02 10:16:51;;;;;;;2.92;1.27;;;;;;;;;;5093933;28;20183;-72
2023/09/02 10:19:55;;;;;;;2.38;1.25;;;;;;;;;;5094461;28;20183;-72
2023/09/02 10:23:03;;;;;;;1.83;1.25;;;;;;;;;;5094547;28;20210;-72
2023/09/02 10:26:10;;;;;;;2.92;1.30;;;;;;;;;;5093582;28;20175;-72
2023/09/02 10:29:18;;;;;;;2.75;1.30;;;;;;;;;;5094410;28;20214;-73
2023/09/02 10:32:26;;;;;;;1.58;1.40;;;;;;;;;;5094378;28;20215;-73
2023/09/02 10:35:32;;;;;;;6.60;1.38;;;;;;;;;;5094142;28;20183;-72
2023/09/02 10:38:40;;;;;;;1.80;1.10;;;;;;;;;;5094254;28;20183;-73
2023/09/02 10:41:46;;;;;;;2.00;1.40;;;;;;;;;;5094006;28;20635;-73
2023/09/02 10:44:52;;;;;;;5.25;1.65;;;;;;;;;;5094484;28;20171;-72
2023/09/02 10:47:56;;;;;;;8.95;1.45;;;;;;;;;;5093867;28;20218;-73
2023/09/02 10:51:02;;;;;;;5.68;1.30;;;;;;;;;;5093184;28;20195;-72
2023/09/02 10:54:06;;;;;;;2.50;1.30;;;;;;;;;;5096581;28;20210;-72
2023/09/02 10:57:13;;;;;;;15.68;1.80;;;;;;;;;;5114062;28;20198;-73
2023/09/02 11:00:25;;;;;;;3.20;1.25;;;;;;;;;;5114032;28;20162;-73
2023/09/02 11:03:49;;;;;;;1.80;1.10;;;;;;;;;;5113205;28;20210;-73
2023/09/02 11:07:24;;;;;;;2.28;1.30;;;;;;;;;;5114314;28;20178;-73
2023/09/02 11:10:51;;;;;;;2.40;1.05;;;;;;;;;;5113901;28;20202;-73
2023/09/02 11:14:17;;;;;;;2.47;1.10;;;;;;;;;;5113844;28;20214;-73
2023/09/02 11:17:27;;;;;;;1.85;1.15;;;;;;;;;;5114315;28;20182;-74
2023/09/02 11:20:48;;;;;;;1.42;1.15;;;;;;;;;;5113754;28;20178;-74
2023/09/02 11:23:52;;;;;;;3.13;1.05;;;;;;;;;;5113656;28;20206;-73
2023/09/02 11:26:58;;;;;;;3.38;1.35;;;;;;;;;;5114418;28;20181;-75
2023/09/02 11:30:09;;;;;;;1.58;1.38;;;;;;;;;;5113659;28;20175;-73
2023/09/02 11:33:17;;;;;;;1.33;1.20;;;;;;;;;;5114007;28;20218;-73
2023/09/02 11:36:22;;;;;;;3.92;1.48;;;;;;;;;;5113858;28;20182;-75
2023/09/02 11:39:30;;;;;;;3.65;1.48;;;;;;;;;;5113684;28;20190;-74
2023/09/02 11:42:34;;;;;;;23.25;2.13;;;;;;;;;;5113638;28;20206;-75
2023/09/02 11:45:38;;;;;;;1.60;1.20;;;;;;;;;;5113534;28;20190;-74
2023/09/02 11:48:42;;;;;;;3.78;1.00;;;;;;;;;;5113319;28;20214;-74
2023/09/02 11:51:47;;;;;;;2.35;1.33;;;;;;;;;;5112648;28;20194;-74
2023/09/02 11:54:51;;;;;;;4.18;1.10;;;;;;;;;;5113416;28;20661;-74
2023/09/02 11:57:55;;;;;;;1.65;1.10;;;;;;;;;;5113631;28;20174;-74
2023/09/02 12:01:01;;;;;;;0.95;0.90;;;;;;;;;;5114773;28;20179;-75
2023/09/02 12:04:04;;;;;;;6.05;1.20;;;;;;;;;;5117574;28;20214;-74
2023/09/02 12:07:09;;;;;;;5.47;1.20;;;;;;;;;;5117305;28;20174;-74
2023/09/02 12:10:16;;;;;;;4.90;1.35;;;;;;;;;;5117069;28;20534;-75
2023/09/02 12:13:20;;;;;;;1.90;1.20;;;;;;;;;;5117784;28;20214;-76
2023/09/02 12:16:25;;;;;;;150.70;9.63;;;;;;;;;;5117470;28;20179;-75
2023/09/02 12:19:30;;;;;;;1.33;1.20;;;;;;;;;;5117011;28;20177;-75
2023/09/02 12:22:35;;;;;;;1.00;0.90;;;;;;;;;;5117000;28;20562;-75
2023/09/02 12:25:41;;;;;;;2.40;1.10;;;;;;;;;;5117002;28;20199;-75
2023/09/02 12:28:49;;;;;;;17.13;1.92;;;;;;;;;;5117029;28;20198;-76
2023/09/02 12:31:58;;;;;;;2.78;1.20;;;;;;;;;;5117300;28;20625;-74
2023/09/02 12:35:09;;;;;;;2.92;1.02;;;;;;;;;;5116190;28;20175;-75
2023/09/02 12:38:13;;;;;;;11.05;1.85;;;;;;;;;;5116953;28;20183;-76
2023/09/02 12:41:18;;;;;;;26.17;2.22;;;;;;;;;;5116100;28;20174;-74
2023/09/02 12:44:22;;;;;;;1.67;1.23;;;;;;;;;;5116559;28;20190;-74
2023/09/02 12:47:27;;;;;;;1.92;1.23;;;;;;;;;;5116571;28;20186;-74
2023/09/02 12:50:32;;;;;;;4.18;1.35;;;;;;;;;;5116761;28;20171;-74
2023/09/02 12:53:37;;;;;;;3.03;1.10;;;;;;;;;;5116511;28;20214;-74
2023/09/02 12:56:41;;;;;;;12.93;1.60;;;;;;;;;;5116698;28;20183;-75
2023/09/02 12:59:45;;;;;;;13.38;1.30;;;;;;;;;;5116422;28;20174;-74
2023/09/02 13:02:53;;;;;;;3.78;1.17;;;;;;;;;;5116174;28;20214;-75
2023/09/02 13:05:57;;;;;;;1.17;1.00;;;;;;;;;;5116490;28;20182;-75
2023/09/02 13:09:02;;;;;;;140.65;8.00;;;;;;;;;;5116418;28;20660;-74
2023/09/02 13:12:06;;;;;;;10.00;1.27;;;;;;;;;;5115086;28;20178;-74
2023/09/02 13:15:12;;;;;;;6.13;1.30;;;;;;;;;;5116059;28;20543;-75
2023/09/02 13:18:17;;;;;;;1.83;0.90;;;;;;;;;;5116399;28;20645;-74
2023/09/02 13:21:22;;;;;;;4.63;1.10;;;;;;;;;;5115982;28;20174;-75
2023/09/02 13:24:29;;;;;;;1.27;1.00;;;;;;;;;;5115956;28;20179;-74
2023/09/02 13:27:34;;;;;;;1.17;1.00;;;;;;;;;;5116197;28;20516;-75
2023/09/02 13:30:37;;;;;;;2.40;1.30;;;;;;;;;;5115981;28;20513;-74
2023/09/02 13:33:42;;;;;;;9.38;1.70;;;;;;;;;;5115669;28;20550;-74
2023/09/02 13:36:46;;;;;;;21.77;2.10;;;;;;;;;;5116069;28;20174;-74
2023/09/02 13:40:00;;;;;;;9.68;1.42;;;;;;;;;;5115514;28;20171;-74
2023/09/02 13:43:24;;;;;;;9.73;1.52;;;;;;;;;;5115512;28;20210;-74
2023/09/02 13:46:30;;;;;;;2.03;1.10;;;;;;;;;;5116067;28;20191;-74
2023/09/02 13:49:34;;;;;;;1.42;1.10;;;;;;;;;;5115303;28;20202;-74
2023/09/02 13:52:38;;;;;;;51.63;3.35;;;;;;;;;;5115419;28;20214;-74
2023/09/02 13:55:44;;;;;;;2.83;1.02;;;;;;;;;;5114551;28;20183;-74
2023/09/02 13:58:51;;;;;;;2.80;1.13;;;;;;;;;;5115724;28;20175;-75
2023/09/02 14:01:55;;;;;;;4.63;1.02;;;;;;;;;;5115325;28;20521;-73
2023/09/02 14:04:59;;;;;;;9.98;1.60;;;;;;;;;;5115229;28;20175;-74
2023/09/02 14:08:03;;;;;;;3.30;1.33;;;;;;;;;;5114994;28;20186;-74
2023/09/02 14:11:08;;;;;;;1.33;1.17;;;;;;;;;;5114821;28;20194;-74
2023/09/02 14:14:15;;;;;;;1.13;0.90;;;;;;;;;;5114857;28;20214;-74
2023/09/02 14:17:18;;;;;;;3.30;1.10;;;;;;;;;;5115379;28;20517;-74
2023/09/02 14:20:23;;;;;;;18.38;2.58;;;;;;;;;;5114735;28;20178;-75
2023/09/02 14:23:27;;;;;;;1.27;0.98;;;;;;;;;;5114562;28;20213;-75
2023/09/02 14:26:32;;;;;;;1.83;1.20;;;;;;;;;;5113830;28;20175;-74
2023/09/02 14:29:37;;;;;;;2.53;1.00;;;;;;;;;;5113697;28;20214;-74
2023/09/02 14:32:41;;;;;;;1.95;1.08;;;;;;;;;;5114644;28;20217;-74
2023/09/02 14:35:45;;;;;;;3.28;0.95;;;;;;;;;;5114445;28;20628;-74
2023/09/02 14:38:49;;;;;;;1.95;1.10;;;;;;;;;;5114673;28;20601;-74
2023/09/02 14:41:53;;;;;;;26.35;2.67;;;;;;;;;;5114600;28;20178;-75
2023/09/02 14:44:57;;;;;;;20.75;1.85;;;;;;;;;;5113475;28;20182;-74
2023/09/02 14:48:02;;;;;;;3.92;1.00;;;;;;;;;;5114221;28;20175;-74
2023/09/02 14:51:07;;;;;;;5.40;1.40;;;;;;;;;;5114858;28;20609;-74
2023/09/02 14:54:13;;;;;;;4.13;1.08;;;;;;;;;;5113957;28;20713;-74
2023/09/02 14:57:18;;;;;;;10.10;1.50;;;;;;;;;;5114322;28;20179;-74
2023/09/02 15:00:22;;;;;;;5.15;1.65;;;;;;;;;;5114217;28;20171;-74
2023/09/02 15:03:29;;;;;;;19.52;2.20;;;;;;;;;;5113991;28;20209;-74
2023/09/02 15:06:34;;;;;;;5.18;1.42;;;;;;;;;;5114211;28;20527;-74
2023/09/02 15:09:38;;;;;;;5.05;2.22;;;;;;;;;;5114122;28;20222;-74
2023/09/02 15:12:42;;;;;;;27.90;2.55;;;;;;;;;;5113702;28;20217;-74
2023/09/02 15:15:46;;;;;;;19.45;1.90;;;;;;;;;;5113866;28;20625;-74
2023/09/02 15:18:50;;;;;;;17.90;2.00;;;;;;;;;;5113126;28;20629;-74
2023/09/02 15:22:00;;;;;;;14.32;1.70;;;;;;;;;;5113101;28;20508;-73
2023/09/02 15:25:09;;;;;;;10.98;1.25;;;;;;;;;;5113767;28;20178;-74
2023/09/02 15:28:13;;;;;;;2.60;1.20;;;;;;;;;;5114009;28;20198;-74
2023/09/02 15:31:17;;;;;;;10.82;1.70;;;;;;;;;;5114236;28;20514;-73
2023/09/02 15:34:22;;;;;;;12.38;1.52;;;;;;;;;;5113672;28;20526;-73
2023/09/02 15:37:25;;;;;;;80.65;5.28;;;;;;;;;;5113856;28;20526;-74
2023/09/02 15:40:30;;;;;;;30.23;2.35;;;;;;;;;;5113497;28;20526;-74
2023/09/02 15:43:38;;;;;;;12.82;1.60;;;;;;;;;;5113702;28;20562;-74
2023/09/02 15:46:42;;;;;;;4.60;1.30;;;;;;;;;;5113834;28;20181;-74
2023/09/02 15:49:47;;;;;;;103.60;6.65;;;;;;;;;;5113369;28;20204;-74
2023/09/02 15:52:52;;;;;;;36.70;2.63;;;;;;;;;;5113627;28;20721;-74
2023/09/02 15:55:57;;;;;;;10.57;1.85;;;;;;;;;;5112730;28;20184;-74
2023/09/02 15:59:01;;;;;;;4.85;1.52;;;;;;;;;;5113394;28;20198;-74
2023/09/02 16:02:06;;;;;;;2.47;0.98;;;;;;;;;;5113228;28;20197;-74
2023/09/02 16:05:10;;;;;;;4.20;1.20;;;;;;;;;;5112698;28;20184;-74
2023/09/02 16:08:14;;;;;;;43.50;3.42;;;;;;;;;;5113381;28;20634;-74
2023/09/02 16:11:18;;;;;;;47.67;3.55;;;;;;;;;;5113152;28;20207;-74
2023/09/02 16:14:22;;;;;;;39.20;2.40;;;;;;;;;;5113217;28;20177;-74
2023/09/02 16:17:30;;;;;;;29.15;2.60;;;;;;;;;;5113567;28;20176;-74
2023/09/02 16:20:34;;;;;;;24.73;3.25;;;;;;;;;;5113867;28;20173;-75
2023/09/02 16:23:38;;;;;;;9.55;1.85;;;;;;;;;;5113156;28;20217;-75
2023/09/02 16:26:42;;;;;;;7.25;1.60;;;;;;;;;;5113401;28;20181;-74
2023/09/02 16:29:46;;;;;;;5.47;1.52;;;;;;;;;;5113046;28;20570;-75
2023/09/02 16:32:50;;;;;;;3.78;1.08;;;;;;;;;;5113129;28;20220;-74
2023/09/02 16:35:54;;;;;;;2.42;1.15;;;;;;;;;;5113080;28;20526;-74
2023/09/02 16:38:59;;;;;;;4.13;1.70;;;;;;;;;;5113283;28;20180;-74
2023/09/02 16:42:03;;;;;;;19.13;2.17;;;;;;;;;;5113085;28;20174;-74
2023/09/02 16:45:12;;;;;;;2.72;1.17;;;;;;;;;;5112418;28;20200;-74
2023/09/02 16:48:20;;;;;;;37.47;2.42;;;;;;;;;;5107687;28;20184;-74
2023/09/02 16:51:24;;;;;;;121.28;6.25;;;;;;;;;;5096419;28;20536;-75
2023/09/02 16:54:30;;;;;;;49.10;3.67;;;;;;;;;;5096432;28;20195;-75
2023/09/02 16:57:44;;;;;;;9.07;1.50;;;;;;;;;;5096142;28;20180;-75
2023/09/02 17:00:48;;;;;;;3.90;1.60;;;;;;;;;;5096275;28;20183;-74
2023/09/02 17:03:53;;;;;;;7.83;1.53;;;;;;;;;;5095996;28;20560;-74
2023/09/02 17:06:58;;;;;;;5.17;1.17;;;;;;;;;;5096119;28;20202;-74
2023/09/02 17:10:03;;;;;;;4.83;1.17;;;;;;;;;;5095730;28;20218;-74
2023/09/02 17:13:09;;;;;;;1.30;1.07;;;;;;;;;;5095862;28;20211;-74
2023/09/02 17:16:13;;;;;;;3.00;1.33;;;;;;;;;;5096070;28;20624;-74
2023/09/02 17:19:18;;;;;;;2.70;1.10;;;;;;;;;;5095821;28;20653;-74
2023/09/02 17:22:22;;;;;;;3.33;1.10;;;;;;;;;;5095722;28;20683;-74
2023/09/02 17:25:27;;;;;;;1.50;1.20;;;;;;;;;;5095737;28;20182;-74
2023/09/02 17:28:33;;;;;;;4.30;1.50;;;;;;;;;;5094920;28;20183;-74
2023/09/02 17:31:37;;;;;;;1.80;1.20;;;;;;;;;;5095708;28;20216;-74
2023/09/02 17:34:43;;;;;;;2.30;1.43;;;;;;;;;;5095323;28;20195;-74
2023/09/02 17:37:47;;;;;;;2.67;1.40;;;;;;;;;;5095518;28;20191;-74
2023/09/02 17:40:51;;;;;;;4.50;1.80;;;;;;;;;;5095171;28;20193;-74
2023/09/02 17:43:56;;;;;;;1.77;1.30;;;;;;;;;;5095171;28;20217;-73
2023/09/02 17:47:00;;;;;;;1.90;1.47;;;;;;;;;;5095381;28;20620;-73
2023/09/02 17:50:06;;;;;;;2.57;1.43;;;;;;;;;;5094924;28;20212;-73
2023/09/02 17:53:10;;;;;;;18.00;2.40;;;;;;;;;;5095016;28;20215;-73
2023/09/02 17:56:16;;;;;;;3.87;1.50;;;;;;;;;;5094829;28;20197;-73
2023/09/02 17:59:21;;;;;;;3.20;1.40;;;;;;;;;;5094896;28;20184;-73
2023/09/02 18:02:25;;;;;;;2.97;1.40;;;;;;;;;;5093796;28;20211;-74
2023/09/02 18:05:29;;;;;;;2.83;1.27;;;;;;;;;;5094684;28;20171;-73
2023/09/02 18:08:33;;;;;;;4.27;1.20;;;;;;;;;;5094823;28;20190;-73
2023/09/02 18:11:37;;;;;;;3.93;1.40;;;;;;;;;;5094463;28;20218;-73
2023/09/02 18:14:44;;;;;;;1.90;1.27;;;;;;;;;;5093625;28;20198;-73
2023/09/02 18:17:48;;;;;;;2.47;1.37;;;;;;;;;;5094670;28;20199;-73
2023/09/02 18:20:52;;;;;;;2.67;1.70;;;;;;;;;;5094475;28;20179;-73
2023/09/02 18:23:56;;;;;;;2.97;1.50;;;;;;;;;;5094314;28;20211;-73
2023/09/02 18:27:04;;;;;;;2.37;1.30;;;;;;;;;;5094578;28;20179;-73
2023/09/02 18:30:09;;;;;;;1.53;1.43;;;;;;;;;;5094133;28;20223;-73